createdAt,value
2023-02-05T00:00:11.779Z,99496.91
2023-02-05T00:03:15.886Z,99499.84
2023-02-05T00:06:21.078Z,99501.47
2023-02-05T00:09:24.988Z,99506.56
2023-02-05T00:12:28.593Z,99513.88
2023-02-05T00:15:32.909Z,99533.84
2023-02-05T00:18:37.621Z,99523.28
2023-02-05T00:21:42.849Z,99530.88
2023-02-05T00:24:46.533Z,99550.97
2023-02-05T00:27:50.402Z,99545.16
2023-02-05T00:30:54.350Z,99536.66
2023-02-05T00:33:58.517Z,99543.84
2023-02-05T00:37:03.825Z,99568.25
2023-02-05T00:40:08.678Z,99558.16
2023-02-05T00:43:12.381Z,99570.22
2023-02-05T00:46:16.393Z,99567.66
2023-02-05T00:49:20.102Z,99562.50
2023-02-05T00:52:25.312Z,99582.38
2023-02-05T00:55:29.584Z,99592.50
2023-02-05T00:58:33.381Z,99582.06
2023-02-05T01:01:37.087Z,99580.50
2023-02-05T01:04:40.749Z,99580.22
2023-02-05T01:07:45.941Z,99599.53
2023-02-05T01:10:52.536Z,99608.81
2023-02-05T01:13:56.348Z,99603.03
2023-02-05T01:17:00.150Z,99605.06
2023-02-05T01:20:03.955Z,99610.69
2023-02-05T01:23:09.890Z,99617.59
2023-02-05T01:26:13.672Z,99606.94
2023-02-05T01:29:19.483Z,99618.00
2023-02-05T01:32:23.200Z,99637.72
2023-02-05T01:35:26.862Z,99632.78
2023-02-05T01:38:32.022Z,99639.25
2023-02-05T01:41:36.084Z,99633.44
2023-02-05T01:44:40.480Z,99637.88
2023-02-05T01:47:44.337Z,99645.34
2023-02-05T01:50:52.968Z,99651.13
2023-02-05T01:53:58.464Z,99645.41
2023-02-05T01:57:06.644Z,99657.94
2023-02-05T02:00:12.322Z,99653.47
2023-02-05T02:03:19.702Z,99652.44
2023-02-05T02:06:23.513Z,99665.09
2023-02-05T02:09:29.378Z,99669.97
2023-02-05T02:12:36.746Z,99673.19
2023-02-05T02:15:42.697Z,99673.75
2023-02-05T02:18:47.537Z,99688.22
2023-02-05T02:22:22.768Z,99697.63
2023-02-05T02:25:53.980Z,99701.50
2023-02-05T02:29:02.304Z,99704.31
2023-02-05T02:32:14.892Z,99713.06
2023-02-05T02:35:28.908Z,99708.06
2023-02-05T02:38:37.491Z,99710.81
2023-02-05T02:41:48.055Z,99710.41
2023-02-05T02:45:01.787Z,99717.41
2023-02-05T02:48:08.294Z,99726.06
2023-02-05T02:51:13.994Z,99715.06
2023-02-05T02:54:19.925Z,99727.75
2023-02-05T02:57:29.490Z,99719.94
2023-02-05T03:00:35.520Z,99720.97
2023-02-05T03:03:43.852Z,99720.97
2023-02-05T03:06:50.596Z,99730.34
2023-02-05T03:10:00.664Z,99725.00
2023-02-05T03:13:04.429Z,99736.06
2023-02-05T03:16:10.310Z,99739.28
2023-02-05T03:19:14.583Z,99734.66
2023-02-05T03:22:18.308Z,99746.19
2023-02-05T03:25:23.743Z,99740.09
2023-02-05T03:28:31.308Z,99741.13
2023-02-05T03:31:45.770Z,99736.53
2023-02-05T03:34:59.274Z,99746.72
2023-02-05T03:38:21.617Z,99752.38
2023-02-05T03:41:48.900Z,99745.47
2023-02-05T03:45:09.998Z,99749.56
2023-02-05T03:48:42.988Z,99760.06
2023-02-05T03:51:53.579Z,99756.19
2023-02-05T03:55:05.131Z,99760.97
2023-02-05T03:58:16.490Z,99754.91
2023-02-05T04:01:20.492Z,99758.31
2023-02-05T04:04:26.971Z,99768.78
2023-02-05T04:07:32.508Z,99769.63
2023-02-05T04:10:36.804Z,99772.78
2023-02-05T04:13:40.717Z,99773.97
2023-02-05T04:16:47.308Z,99769.25
2023-02-05T04:19:52.553Z,99782.88
2023-02-05T04:22:57.322Z,99787.78
2023-02-05T04:26:02.377Z,99781.38
2023-02-05T04:29:14.808Z,99784.69
2023-02-05T04:32:22.651Z,99778.75
2023-02-05T04:35:28.482Z,99783.22
2023-02-05T04:38:32.365Z,99791.19
2023-02-05T04:41:36.085Z,99794.34
2023-02-05T04:44:39.761Z,99811.78
2023-02-05T04:47:43.457Z,99811.69
2023-02-05T04:50:48.948Z,99810.72
2023-02-05T04:53:52.844Z,99815.00
2023-02-05T04:56:56.575Z,99814.84
2023-02-05T05:00:00.381Z,99809.88
2023-02-05T05:03:04.162Z,99819.00
2023-02-05T05:06:09.789Z,99813.09
2023-02-05T05:09:13.340Z,99814.19
2023-02-05T05:12:17.103Z,99820.72
2023-02-05T05:15:20.945Z,99824.47
2023-02-05T05:18:24.595Z,99823.44
2023-02-05T05:21:29.816Z,99832.94
2023-02-05T05:24:33.352Z,99840.19
2023-02-05T05:27:37.090Z,99845.47
2023-02-05T05:30:42.140Z,99840.31
2023-02-05T05:33:45.925Z,99851.81
2023-02-05T05:36:51.214Z,99848.78
2023-02-05T05:40:12.331Z,99847.63
2023-02-05T05:43:37.531Z,99853.78
2023-02-05T05:46:41.312Z,99864.91
2023-02-05T05:49:44.986Z,99864.50
2023-02-05T05:52:50.161Z,99874.91
2023-02-05T05:55:53.847Z,99886.41
2023-02-05T05:58:57.590Z,99887.25
2023-02-05T06:02:02.870Z,99891.97
2023-02-05T06:05:06.909Z,99897.81
2023-02-05T06:08:12.288Z,99903.34
2023-02-05T06:11:16.230Z,99892.31
2023-02-05T06:14:20.186Z,99898.13
2023-02-05T06:17:24.048Z,99896.47
2023-02-05T06:20:28.006Z,99894.66
2023-02-05T06:23:33.442Z,99904.44
2023-02-05T06:26:37.331Z,99915.31
2023-02-05T06:29:41.193Z,99923.47
2023-02-05T06:32:45.007Z,99923.38
2023-02-05T06:35:48.893Z,99917.91
2023-02-05T06:38:54.317Z,99933.22
2023-02-05T06:41:58.158Z,99938.91
2023-02-05T06:45:02.218Z,99943.78
2023-02-05T06:48:06.248Z,99952.38
2023-02-05T06:51:10.098Z,99961.69
2023-02-05T06:54:15.490Z,99982.19
2023-02-05T06:57:19.500Z,99991.66
2023-02-05T07:00:23.572Z,99994.66
2023-02-05T07:03:27.514Z,100007.47
2023-02-05T07:06:31.356Z,100002.13
2023-02-05T07:09:36.817Z,100004.28
2023-02-05T07:12:40.691Z,100015.44
2023-02-05T07:15:44.728Z,100018.44
2023-02-05T07:18:48.826Z,100025.16
2023-02-05T07:21:53.134Z,100023.69
2023-02-05T07:24:58.455Z,100031.31
2023-02-05T07:28:02.742Z,100034.09
2023-02-05T07:31:07.648Z,100045.25
2023-02-05T07:34:11.605Z,100042.19
2023-02-05T07:37:16.165Z,100034.53
2023-02-05T07:40:21.714Z,100030.00
2023-02-05T07:43:25.771Z,100040.22
2023-02-05T07:46:29.590Z,100045.78
2023-02-05T07:49:33.500Z,100036.72
2023-02-05T07:52:37.379Z,100037.31
2023-02-05T07:55:42.827Z,100046.81
2023-02-05T07:58:46.638Z,100034.41
2023-02-05T08:01:50.600Z,100037.56
2023-02-05T08:04:54.517Z,100039.41
2023-02-05T08:07:58.359Z,100051.16
2023-02-05T08:11:05.929Z,100052.75
2023-02-05T08:14:09.747Z,100055.84
2023-02-05T08:17:13.629Z,100059.34
2023-02-05T08:20:17.714Z,100065.84
2023-02-05T08:23:22.116Z,100068.47
2023-02-05T08:26:27.497Z,100069.91
2023-02-05T08:29:31.466Z,100069.66
2023-02-05T08:32:35.581Z,100073.91
2023-02-05T08:35:39.531Z,100081.78
2023-02-05T08:38:43.423Z,100089.53
2023-02-05T08:41:48.768Z,100090.97
2023-02-05T08:44:52.862Z,100093.94
2023-02-05T08:47:56.837Z,100101.03
2023-02-05T08:51:00.718Z,100101.38
2023-02-05T08:54:05.990Z,100110.34
2023-02-05T08:57:12.497Z,100105.59
2023-02-05T09:00:17.326Z,100099.53
2023-02-05T09:03:21.278Z,100111.91
2023-02-05T09:06:25.207Z,100098.25
2023-02-05T09:09:30.788Z,100112.69
2023-02-05T09:12:36.159Z,100106.63
2023-02-05T09:15:43.869Z,100111.50
2023-02-05T09:18:47.737Z,100115.75
2023-02-05T09:21:53.959Z,100105.06
2023-02-05T09:24:58.161Z,100110.03
2023-02-05T09:28:03.479Z,100118.59
2023-02-05T09:31:09.366Z,100119.88
2023-02-05T09:34:13.682Z,100110.19
2023-02-05T09:37:18.193Z,100118.19
2023-02-05T09:40:27.422Z,100120.34
2023-02-05T09:43:44.297Z,100121.84
2023-02-05T09:46:56.937Z,100114.88
2023-02-05T09:50:07.195Z,100116.94
2023-02-05T09:53:17.197Z,100109.19
2023-02-05T09:56:21.644Z,100111.41
2023-02-05T09:59:29.110Z,100103.22
2023-02-05T10:02:41.500Z,100107.00
2023-02-05T10:05:56.610Z,100107.56
2023-02-05T10:09:09.755Z,100107.13
2023-02-05T10:12:25.791Z,100107.88
2023-02-05T10:15:42.870Z,100108.44
2023-02-05T10:19:00.718Z,100108.06
2023-02-05T10:22:15.428Z,100111.63
2023-02-05T10:25:45.737Z,100120.56
2023-02-05T10:29:12.601Z,100119.41
2023-02-05T10:32:23.878Z,100119.69
2023-02-05T10:35:36.668Z,100123.75
2023-02-05T10:38:45.415Z,100122.41
2023-02-05T10:41:55.192Z,100123.66
2023-02-05T10:45:08.122Z,100121.41
2023-02-05T10:48:27.850Z,100119.75
2023-02-05T10:51:37.130Z,100122.72
2023-02-05T10:54:42.220Z,100126.38
2023-02-05T10:57:46.022Z,100126.38
2023-02-05T11:00:50.011Z,100119.66
2023-02-05T11:04:00.890Z,100125.53
2023-02-05T11:07:06.650Z,100124.28
2023-02-05T11:10:19.662Z,100118.47
2023-02-05T11:13:24.180Z,100121.97
2023-02-05T11:16:40.034Z,100117.28
2023-02-05T11:19:54.486Z,100112.97
2023-02-05T11:23:10.520Z,100112.16
2023-02-05T11:26:20.394Z,100114.13
2023-02-05T11:29:26.060Z,100117.69
2023-02-05T11:32:38.410Z,100123.91
2023-02-05T11:35:53.658Z,100108.47
2023-02-05T11:38:59.317Z,100112.91
2023-02-05T11:42:11.761Z,100103.97
2023-02-05T11:45:20.418Z,100108.97
2023-02-05T11:48:33.594Z,100101.78
2023-02-05T11:51:45.964Z,100107.19
2023-02-05T11:54:50.390Z,100101.75
2023-02-05T11:58:01.001Z,100098.75
2023-02-05T12:01:07.487Z,100103.00
2023-02-05T12:04:19.755Z,100107.56
2023-02-05T12:07:28.212Z,100115.34
2023-02-05T12:10:39.530Z,100101.84
2023-02-05T12:13:56.397Z,100109.03
2023-02-05T12:17:09.543Z,100109.59
2023-02-05T12:20:23.327Z,100114.00
2023-02-05T12:23:47.161Z,100110.91
2023-02-05T12:26:58.163Z,100116.78
2023-02-05T12:30:14.240Z,100118.66
2023-02-05T12:33:45.376Z,100124.59
2023-02-05T12:37:18.440Z,100115.06
2023-02-05T12:40:40.099Z,100114.84
2023-02-05T12:43:48.121Z,100119.78
2023-02-05T12:47:01.029Z,100115.66
2023-02-05T12:50:32.468Z,100121.41
2023-02-05T12:53:56.908Z,100125.66
2023-02-05T12:57:06.981Z,100116.94
2023-02-05T13:00:17.357Z,100128.88
2023-02-05T13:03:30.169Z,100123.41
2023-02-05T13:06:39.260Z,100127.22
2023-02-05T13:09:49.201Z,100129.00
2023-02-05T13:12:59.992Z,100136.94
2023-02-05T13:16:08.409Z,100140.59
2023-02-05T13:19:25.442Z,100140.66
2023-02-05T13:22:51.062Z,100136.00
2023-02-05T13:26:14.062Z,100136.28
2023-02-05T13:29:23.984Z,100145.50
2023-02-05T13:32:32.823Z,100140.81
2023-02-05T13:35:44.484Z,100128.53
2023-02-05T13:39:04.192Z,100132.03
2023-02-05T13:42:27.313Z,100139.94
2023-02-05T13:46:00.375Z,100136.00
2023-02-05T13:49:43.348Z,100138.72
2023-02-05T13:53:18.425Z,100138.03
2023-02-05T13:56:46.501Z,100138.66
2023-02-05T13:59:54.105Z,100143.53
2023-02-05T14:03:05.890Z,100144.78
2023-02-05T14:06:24.640Z,100150.59
2023-02-05T14:09:36.395Z,100152.56
2023-02-05T14:12:40.599Z,100151.44
2023-02-05T14:15:45.792Z,100152.50
2023-02-05T14:19:05.243Z,100151.16
2023-02-05T14:22:14.242Z,100151.81
2023-02-05T14:26:06.409Z,100148.53
2023-02-05T14:29:41.793Z,100146.59
2023-02-05T14:33:00.030Z,100148.69
2023-02-05T14:36:33.398Z,100148.69
2023-02-05T14:39:38.672Z,100146.09
2023-02-05T14:42:44.438Z,100153.28
2023-02-05T14:45:51.223Z,100156.06
2023-02-05T14:48:58.417Z,100147.75
2023-02-05T14:52:08.063Z,100157.47
2023-02-05T14:55:21.462Z,100156.56
2023-02-05T14:58:28.526Z,100165.47
2023-02-05T15:01:50.418Z,100166.47
2023-02-05T15:04:56.115Z,100161.38
2023-02-05T15:08:11.512Z,100163.72
2023-02-05T15:11:22.327Z,100177.47
2023-02-05T15:14:52.837Z,100175.03
2023-02-05T15:17:59.636Z,100182.97
2023-02-05T15:21:04.321Z,100184.88
2023-02-05T15:24:16.450Z,100190.84
2023-02-05T15:27:24.787Z,100183.22
2023-02-05T15:30:33.778Z,100183.88
2023-02-05T15:33:45.826Z,100188.69
2023-02-05T15:36:56.130Z,100192.25
2023-02-05T15:40:04.685Z,100198.88
2023-02-05T15:43:17.817Z,100198.06
2023-02-05T15:46:22.402Z,100204.91
2023-02-05T15:49:32.994Z,100204.59
2023-02-05T15:52:36.975Z,100208.34
2023-02-05T15:55:42.264Z,100204.28
2023-02-05T15:58:50.701Z,100207.75
2023-02-05T16:02:04.138Z,100203.03
2023-02-05T16:05:20.355Z,100208.66
2023-02-05T16:08:28.300Z,100220.94
2023-02-05T16:11:37.432Z,100218.69
2023-02-05T16:14:41.265Z,100220.44
2023-02-05T16:17:49.632Z,100216.16
2023-02-05T16:20:59.765Z,100226.66
2023-02-05T16:24:07.866Z,100228.41
2023-02-05T16:27:17.536Z,100228.22
2023-02-05T16:30:28.601Z,100233.41
2023-02-05T16:33:38.019Z,100227.97
2023-02-05T16:36:46.009Z,100239.09
2023-02-05T16:39:54.882Z,100240.47
2023-02-05T16:43:00.435Z,100224.25
2023-02-05T16:46:29.077Z,100222.13
2023-02-05T16:49:33.496Z,100224.09
2023-02-05T16:52:38.376Z,100219.28
2023-02-05T16:55:44.655Z,100217.91
2023-02-05T16:58:53.045Z,100225.56
2023-02-05T17:01:57.404Z,100231.56
2023-02-05T17:05:02.462Z,100229.50
2023-02-05T17:08:08.678Z,100231.91
2023-02-05T17:11:36.294Z,100238.25
2023-02-05T17:14:41.533Z,100236.31
2023-02-05T17:17:50.008Z,100237.53
2023-02-05T17:21:14.293Z,100248.75
2023-02-05T17:24:19.237Z,100251.81
2023-02-05T17:27:29.784Z,100259.03
2023-02-05T17:30:36.247Z,100267.56
2023-02-05T17:33:40.804Z,100260.75
2023-02-05T17:36:44.718Z,100262.66
2023-02-05T17:39:50.014Z,100258.84
2023-02-05T17:42:53.843Z,100269.25
2023-02-05T17:45:59.297Z,100271.06
2023-02-05T17:49:03.224Z,100268.25
2023-02-05T17:52:07.503Z,100277.66
2023-02-05T17:55:15.064Z,100271.81
2023-02-05T17:58:18.794Z,100279.91
2023-02-05T18:01:24.150Z,100275.16
2023-02-05T18:04:27.985Z,100283.25
2023-02-05T18:07:35.230Z,100275.31
2023-02-05T18:10:39.116Z,100287.59
2023-02-05T18:13:43.003Z,100288.03
2023-02-05T18:16:48.372Z,100287.88
2023-02-05T18:19:52.337Z,100285.91
2023-02-05T18:22:56.263Z,100287.50
2023-02-05T18:26:00.492Z,100289.09
2023-02-05T18:29:04.317Z,100290.75
2023-02-05T18:32:10.016Z,100297.66
2023-02-05T18:35:15.238Z,100290.00
2023-02-05T18:38:19.232Z,100294.59
2023-02-05T18:41:23.105Z,100297.31
2023-02-05T18:44:27.822Z,100303.38
2023-02-05T18:47:33.164Z,100302.19
2023-02-05T18:50:37.270Z,100300.63
2023-02-05T18:53:44.744Z,100302.03
2023-02-05T18:56:49.073Z,100306.69
2023-02-05T18:59:54.039Z,100303.50
2023-02-05T19:02:59.392Z,100299.91
2023-02-05T19:06:05.765Z,100307.19
2023-02-05T19:09:09.774Z,100308.09
2023-02-05T19:12:13.548Z,100303.72
2023-02-05T19:15:17.604Z,100310.16
2023-02-05T19:18:22.950Z,100312.69
2023-02-05T19:21:29.597Z,100304.72
2023-02-05T19:24:33.887Z,100306.16
2023-02-05T19:27:37.646Z,100312.69
2023-02-05T19:30:41.688Z,100312.75
2023-02-05T19:33:47.161Z,100314.56
2023-02-05T19:36:51.096Z,100315.25
2023-02-05T19:39:55.020Z,100313.09
2023-02-05T19:42:58.929Z,100312.75
2023-02-05T19:46:04.222Z,100314.63
2023-02-05T19:49:14.061Z,100316.00
2023-02-05T19:52:18.296Z,100321.63
2023-02-05T19:55:22.272Z,100323.31
2023-02-05T19:58:26.073Z,100329.94
2023-02-05T20:01:32.179Z,100327.50
2023-02-05T20:04:37.542Z,100324.91
2023-02-05T20:07:41.365Z,100333.66
2023-02-05T20:10:45.201Z,100323.91
2023-02-05T20:13:49.400Z,100327.00
2023-02-05T20:16:53.786Z,100329.78
2023-02-05T20:20:10.335Z,100332.69
2023-02-05T20:23:17.939Z,100333.53
2023-02-05T20:26:22.750Z,100333.66
2023-02-05T20:29:43.808Z,100328.47
2023-02-05T20:32:47.827Z,100334.53
2023-02-05T20:35:53.378Z,100333.97
2023-02-05T20:38:58.086Z,100340.16
2023-02-05T20:42:02.886Z,100346.13
2023-02-05T20:45:07.366Z,100347.88
2023-02-05T20:48:11.157Z,100343.44
2023-02-05T20:51:17.821Z,100355.38
2023-02-05T20:54:21.907Z,100348.88
2023-02-05T20:57:25.872Z,100348.22
2023-02-05T21:00:29.742Z,100356.22
2023-02-05T21:03:33.669Z,100354.69
2023-02-05T21:06:40.630Z,100355.44
2023-02-05T21:09:44.556Z,100364.97
2023-02-05T21:12:48.398Z,100359.34
2023-02-05T21:15:56.714Z,100368.53
2023-02-05T21:19:00.579Z,100375.66
2023-02-05T21:22:05.937Z,100376.53
2023-02-05T21:25:10.218Z,100369.28
2023-02-05T21:28:14.780Z,100365.13
2023-02-05T21:31:18.666Z,100370.50
2023-02-05T21:34:24.429Z,100376.59
2023-02-05T21:37:29.860Z,100374.78
2023-02-05T21:40:33.875Z,100373.25
2023-02-05T21:43:38.247Z,100378.56
2023-02-05T21:46:42.393Z,100376.50
2023-02-05T21:49:46.357Z,100379.97
2023-02-05T21:52:52.032Z,100385.69
2023-02-05T21:55:56.059Z,100388.63
2023-02-05T21:59:00.021Z,100385.28
2023-02-05T22:02:03.961Z,100395.97
2023-02-05T22:05:08.941Z,100391.13
2023-02-05T22:08:14.239Z,100399.00
2023-02-05T22:11:19.997Z,100394.47
2023-02-05T22:14:24.425Z,100398.75
2023-02-05T22:17:28.601Z,100381.69
2023-02-05T22:20:32.408Z,100386.41
2023-02-05T22:23:37.734Z,100380.34
2023-02-05T22:26:41.797Z,100384.56
2023-02-05T22:29:45.677Z,100382.50
2023-02-05T22:32:49.443Z,100377.66
2023-02-05T22:35:53.654Z,100380.06
2023-02-05T22:38:59.620Z,100381.69
2023-02-05T22:42:04.634Z,100378.88
2023-02-05T22:45:09.256Z,100389.13
2023-02-05T22:48:13.232Z,100390.72
2023-02-05T22:51:19.603Z,100398.09
2023-02-05T22:54:24.872Z,100393.44
2023-02-05T22:57:28.692Z,100400.25
2023-02-05T23:00:33.702Z,100397.50
2023-02-05T23:03:37.833Z,100400.81
2023-02-05T23:06:43.758Z,100391.63
2023-02-05T23:09:49.137Z,100389.69
2023-02-05T23:12:53.178Z,100406.22
2023-02-05T23:15:57.037Z,100391.97
2023-02-05T23:19:02.993Z,100397.66
2023-02-05T23:22:09.960Z,100388.84
2023-02-05T23:25:15.326Z,100388.25
2023-02-05T23:28:19.992Z,100391.41
2023-02-05T23:31:24.514Z,100394.06
2023-02-05T23:34:30.009Z,100394.34
2023-02-05T23:37:35.129Z,100395.66
2023-02-05T23:40:40.428Z,100389.56
2023-02-05T23:43:44.368Z,100405.81
2023-02-05T23:46:49.741Z,100397.84
2023-02-05T23:49:53.695Z,100412.63
2023-02-05T23:52:57.685Z,100418.63
2023-02-05T23:56:03.742Z,100416.31
2023-02-05T23:59:09.093Z,100425.50
